Time;durP1;ratioP1;P1;durP2;ratioP2;P2;SDS_P1;SDS_P2;PMS_P1;PMS_P2;Temp;Humidity;BMP_temperature;BMP_pressure;BME280_temperature;BME280_humidity;BME280_pressure;Samples;Min_cycle;Max_cycle;Signal;HPM_P1;HPM_P2
2024/03/15 00:00:56;;;;;;;;;5.00;5.00;;;;;17.76;100.00;100424.41;2116187;27;46936;-61
2024/03/15 00:01:58;;;;;;;;;5.00;5.00;;;;;17.81;100.00;100433.09;2117472;27;47479;-60
2024/03/15 00:02:58;;;;;;;;;7.00;6.25;;;;;17.82;100.00;100425.91;2116933;27;46984;-61
2024/03/15 00:03:59;;;;;;;;;7.00;5.67;;;;;17.82;100.00;100426.78;2116707;27;46942;-61
2024/03/15 00:04:59;;;;;;;;;5.00;4.33;;;;;17.82;100.00;100424.09;2116947;27;46423;-59
2024/03/15 00:06:00;;;;;;;;;6.00;6.00;;;;;17.76;100.00;100429.78;2116811;27;46492;-61
2024/03/15 00:07:01;;;;;;;;;5.00;5.00;;;;;17.75;100.00;100435.25;2116736;27;47231;-61
2024/03/15 00:08:01;;;;;;;;;5.25;5.25;;;;;17.75;100.00;100429.88;2117316;27;48492;-61
2024/03/15 00:09:02;;;;;;;;;5.67;4.33;;;;;17.73;100.00;100435.34;2116800;27;46453;-58
2024/03/15 00:10:03;;;;;;;;;4.33;4.33;;;;;17.72;100.00;100433.59;2117271;27;46290;-60
2024/03/15 00:11:03;;;;;;;;;6.33;4.67;;;;;17.71;100.00;100434.56;2117149;27;46841;-57
2024/03/15 00:12:03;;;;;;;;;6.00;6.00;;;;;17.71;100.00;100439.06;2106852;27;46291;-60
2024/03/15 00:13:04;;;;;;;;;5.33;5.33;;;;;17.70;100.00;100435.50;2107594;27;46456;-61
2024/03/15 00:14:04;;;;;;;;;4.00;4.00;;;;;17.71;100.00;100439.94;2117020;27;46350;-61
2024/03/15 00:15:05;;;;;;;;;5.67;5.67;;;;;17.69;100.00;100439.16;2116215;27;46551;-61
2024/03/15 00:16:06;;;;;;;;;5.67;5.67;;;;;17.64;100.00;100441.16;2116613;27;46733;-58
2024/03/15 00:17:07;;;;;;;;;6.00;5.00;;;;;17.60;100.00;100442.31;2116581;27;46675;-60
2024/03/15 00:18:08;;;;;;;;;6.50;5.75;;;;;17.64;100.00;100447.41;2117285;27;46448;-61
2024/03/15 00:19:08;;;;;;;;;3.00;3.00;;;;;17.67;100.00;100448.22;2117679;27;45649;-61
2024/03/15 00:20:11;;;;;;;;;4.67;4.67;;;;;17.67;100.00;100453.59;2115622;27;46448;-61
2024/03/15 00:21:14;;;;;;;;;7.50;5.00;;;;;17.60;100.00;100445.84;2110792;27;46487;-61
2024/03/15 00:22:15;;;;;;;;;4.50;4.50;;;;;17.60;100.00;100443.16;2112068;27;46522;-61
2024/03/15 00:23:16;;;;;;;;;7.67;5.00;;;;;17.60;100.00;100456.59;2116656;27;46664;-61
2024/03/15 00:24:16;;;;;;;;;6.25;4.50;;;;;17.58;100.00;100450.44;2117142;27;47066;-60
2024/03/15 00:25:20;;;;;;;;;4.00;4.00;;;;;17.59;100.00;100456.66;2115535;27;47267;-62
2024/03/15 00:26:21;;;;;;;;;4.00;4.00;;;;;17.58;100.00;100450.44;2116547;27;46463;-61
2024/03/15 00:27:21;;;;;;;;;5.00;5.00;;;;;17.60;100.00;100450.34;2109337;27;46191;-62
2024/03/15 00:28:21;;;;;;;;;5.00;5.00;;;;;17.62;100.00;100448.44;2109877;27;46502;-62
2024/03/15 00:29:22;;;;;;;;;6.00;4.00;;;;;17.57;100.00;100448.72;2115491;27;47068;-63
2024/03/15 00:30:23;;;;;;;;;5.33;5.33;;;;;17.62;100.00;100451.13;2116356;27;46345;-62
2024/03/15 00:31:24;;;;;;;;;5.25;4.00;;;;;17.58;100.00;100450.44;2114652;27;46688;-62
2024/03/15 00:32:25;;;;;;;;;5.00;5.00;;;;;17.57;100.00;100454.06;2116152;27;46484;-61
2024/03/15 00:33:25;;;;;;;;;4.00;4.00;;;;;17.54;100.00;100446.19;2116951;27;46449;-61
2024/03/15 00:34:26;;;;;;;;;3.00;3.00;;;;;17.56;100.00;100456.84;2115524;27;46462;-61
2024/03/15 00:35:26;;;;;;;;;6.67;5.00;;;;;17.56;100.00;100456.84;2114832;27;46298;-61
2024/03/15 00:36:26;;;;;;;;;6.00;6.00;;;;;17.55;100.00;100452.44;2115039;27;46278;-61
2024/03/15 00:37:27;;;;;;;;;5.33;5.33;;;;;17.55;100.00;100455.13;2115297;27;46416;-62
2024/03/15 00:38:28;;;;;;;;;5.67;4.00;;;;;17.56;100.00;100459.53;2114951;27;46390;-61
2024/03/15 00:39:28;;;;;;;;;5.50;5.50;;;;;17.54;100.00;100456.94;2116894;27;46393;-60
2024/03/15 00:40:29;;;;;;;;;5.00;5.00;;;;;17.55;100.00;100455.13;2116825;27;46466;-61
2024/03/15 00:41:29;;;;;;;;;7.00;5.00;;;;;17.56;100.00;100465.75;2115575;27;46921;-61
2024/03/15 00:42:30;;;;;;;;;7.67;7.00;;;;;17.53;100.00;100448.94;2114160;27;46235;-60
2024/03/15 00:43:30;;;;;;;;;7.00;5.00;;;;;17.54;100.00;100450.69;2107882;27;46241;-59
2024/03/15 00:44:30;;;;;;;;;7.00;7.00;;;;;17.54;100.00;100459.63;2107377;27;46163;-58
2024/03/15 00:45:31;;;;;;;;;6.00;4.67;;;;;17.58;100.00;100452.25;2111613;27;46435;-58
2024/03/15 00:46:31;;;;;;;;;4.00;4.00;;;;;17.55;100.00;100458.66;2113733;27;46569;-61
2024/03/15 00:47:31;;;;;;;;;4.00;4.00;;;;;17.54;100.00;100458.75;2113151;27;46457;-58
2024/03/15 00:48:32;;;;;;;;;4.33;4.00;;;;;17.54;100.00;100454.25;2112183;27;46514;-60
2024/03/15 00:49:34;;;;;;;;;4.33;4.33;;;;;17.54;100.00;100461.44;2115642;27;45458;-62
2024/03/15 00:50:35;;;;;;;;;4.75;3.00;;;;;17.53;100.00;100455.22;2114791;27;46617;-59
2024/03/15 00:51:35;;;;;;;;;6.00;6.00;;;;;17.59;100.00;100459.34;2114131;27;46715;-61
2024/03/15 00:52:37;;;;;;;;;5.00;5.00;;;;;17.62;100.00;100454.69;2115272;27;46487;-59
2024/03/15 00:53:37;;;;;;;;;4.50;4.25;;;;;17.57;100.00;100453.22;2114604;27;46850;-60
2024/03/15 00:54:38;;;;;;;;;4.00;4.00;;;;;17.58;100.00;100461.16;2114607;27;46626;-60
2024/03/15 00:55:38;;;;;;;;;4.00;3.00;;;;;17.58;100.00;100460.31;2113829;27;46545;-57
2024/03/15 00:56:38;;;;;;;;;5.00;3.00;;;;;17.53;100.00;100463.25;2114386;27;46465;-61
2024/03/15 00:57:39;;;;;;;;;3.00;3.00;;;;;17.52;100.00;100457.94;2115087;27;46283;-61
2024/03/15 00:58:39;;;;;;;;;3.33;3.33;;;;;17.53;100.00;100457.88;2114066;27;46249;-60
2024/03/15 00:59:39;;;;;;;;;4.00;4.00;;;;;17.53;100.00;100465.03;2115089;27;46667;-59
2024/03/15 01:00:40;;;;;;;;;3.33;3.00;;;;;17.58;100.00;100463.00;2114854;27;46732;-60
2024/03/15 01:01:42;;;;;;;;;5.00;5.00;;;;;17.59;100.00;100462.91;2113974;27;46836;-60
2024/03/15 01:02:42;;;;;;;;;3.50;2.75;;;;;17.64;100.00;100466.19;2115183;27;47277;-59
2024/03/15 01:03:43;;;;;;;;;4.00;4.00;;;;;17.60;100.00;100464.63;2113292;27;46626;-60
2024/03/15 01:04:44;;;;;;;;;2.00;2.00;;;;;17.71;100.00;100465.91;2114824;27;46743;-61
2024/03/15 01:05:45;;;;;;;;;4.00;3.75;;;;;17.60;100.00;100461.09;2114542;27;46514;-60
2024/03/15 01:06:46;;;;;;;;;4.75;4.00;;;;;17.62;100.00;100460.03;2114471;27;46757;-58
2024/03/15 01:07:46;;;;;;;;;3.33;3.33;;;;;17.65;100.00;100461.69;2114830;27;46698;-61
2024/03/15 01:08:46;;;;;;;;;3.00;3.00;;;;;17.66;100.00;100460.75;2115342;27;45264;-60
2024/03/15 01:09:47;;;;;;;;;4.00;4.00;;;;;17.61;100.00;100458.31;2113438;27;46213;-60
2024/03/15 01:10:47;;;;;;;;;5.00;3.67;;;;;17.61;100.00;100463.69;2114335;27;46518;-62
2024/03/15 01:11:48;;;;;;;;;2.50;2.50;;;;;17.59;100.00;100451.31;2114293;27;46401;-61
2024/03/15 01:12:48;;;;;;;;;4.00;3.67;;;;;17.56;100.00;100456.84;2109112;27;46264;-60
2024/03/15 01:13:55;;;;;;;;;4.00;3.00;;;;;17.51;100.00;100450.84;2105642;27;46044;-60
2024/03/15 01:14:55;;;;;;;;;5.00;2.00;;;;;17.51;100.00;100442.78;2113931;27;46817;-59
2024/03/15 01:15:55;;;;;;;;;4.67;2.00;;;;;17.48;100.00;100454.56;2114849;27;46311;-60
2024/03/15 01:16:56;;;;;;;;;3.00;3.00;;;;;17.51;100.00;100456.22;2113979;27;46806;-61
2024/03/15 01:17:56;;;;;;;;;4.67;2.33;;;;;17.47;100.00;100446.59;2114057;27;46683;-62
2024/03/15 01:18:57;;;;;;;;;2.00;2.00;;;;;17.46;100.00;100451.09;2114705;27;46396;-60
2024/03/15 01:19:57;;;;;;;;;3.75;3.00;;;;;17.49;100.00;100452.75;2108934;27;46407;-62
2024/03/15 01:20:58;;;;;;;;;2.67;2.67;;;;;17.46;100.00;100459.16;2110506;27;46270;-59
2024/03/15 01:21:58;;;;;;;;;2.33;2.33;;;;;17.45;100.00;100465.47;2113992;27;46442;-62
2024/03/15 01:22:59;;;;;;;;;4.00;3.00;;;;;17.53;100.00;100459.66;2108365;27;46299;-62
2024/03/15 01:23:59;;;;;;;;;3.67;3.67;;;;;17.47;100.00;100454.66;2110202;27;46833;-62
2024/03/15 01:24:59;;;;;;;;;2.00;2.00;;;;;17.45;100.00;100453.88;2114100;27;46214;-62
2024/03/15 01:26:00;;;;;;;;;3.00;3.00;;;;;17.47;100.00;100460.03;2114428;27;46187;-60
2024/03/15 01:27:00;;;;;;;;;3.00;3.00;;;;;17.59;100.00;100456.66;2114933;27;46690;-61
2024/03/15 01:28:02;;;;;;;;;3.00;3.00;;;;;17.64;100.00;100462.63;2114820;27;46215;-59
2024/03/15 01:29:02;;;;;;;;;1.25;0.50;;;;;17.62;100.00;100448.44;2114467;27;46605;-62
2024/03/15 01:30:04;;;;;;;;;1.00;1.00;;;;;17.59;100.00;100448.63;2114071;27;46297;-62
2024/03/15 01:31:04;;;;;;;;;2.00;2.00;;;;;17.58;100.00;100452.25;2115504;27;46708;-59
2024/03/15 01:32:04;;;;;;;;;4.00;4.00;;;;;17.58;100.00;100455.81;2113905;27;46369;-61
2024/03/15 01:33:05;;;;;;;;;2.67;2.67;;;;;17.61;100.00;100447.56;2114395;27;46334;-60
2024/03/15 01:34:05;;;;;;;;;1.00;1.00;;;;;17.57;100.00;100445.16;2109504;27;45447;-61
2024/03/15 01:35:07;;;;;;;;;2.00;2.00;;;;;17.59;100.00;100448.63;2108299;27;46587;-61
2024/03/15 01:36:07;;;;;;;;;5.00;2.75;;;;;17.59;100.00;100437.88;2104777;27;46393;-61
2024/03/15 01:37:07;;;;;;;;;2.00;2.00;;;;;17.58;100.00;100439.72;2107918;27;46536;-60
2024/03/15 01:38:08;;;;;;;;;3.00;3.00;;;;;17.59;100.00;100444.13;2114568;27;46997;-62
2024/03/15 01:39:09;;;;;;;;;3.00;3.00;;;;;17.58;100.00;100442.38;2115013;27;46363;-62
2024/03/15 01:40:12;;;;;;;;;3.00;2.67;;;;;17.56;100.00;100441.59;2115137;27;46503;-62
2024/03/15 01:41:12;;;;;;;;;1.00;1.00;;;;;17.54;100.00;100437.28;2114647;27;46736;-61
2024/03/15 01:42:13;;;;;;;;;2.00;2.00;;;;;17.53;100.00;100436.41;2114004;27;46160;-62
2024/03/15 01:43:14;;;;;;;;;2.00;2.00;;;;;17.53;100.00;100440.88;2115102;27;46162;-59
2024/03/15 01:44:14;;;;;;;;;1.33;1.33;;;;;17.55;100.00;100430.97;2114920;27;46403;-61
2024/03/15 01:45:15;;;;;;;;;0.00;0.00;;;;;17.53;100.00;100432.84;2114195;27;46174;-62
2024/03/15 01:46:15;;;;;;;;;2.67;2.67;;;;;17.53;100.00;100431.06;2115003;27;46723;-61
2024/03/15 01:47:16;;;;;;;;;1.67;1.67;;;;;17.53;100.00;100431.06;2113651;27;46417;-61
2024/03/15 01:48:17;;;;;;;;;1.00;1.00;;;;;17.53;100.00;100438.22;2114445;27;46576;-60
2024/03/15 01:49:17;;;;;;;;;1.00;1.00;;;;;17.55;100.00;100439.88;2114541;27;46573;-62
2024/03/15 01:50:21;;;;;;;;;2.00;2.00;;;;;17.54;100.00;100438.16;2114244;27;46443;-61
2024/03/15 01:51:22;;;;;;;;;2.00;1.00;;;;;17.58;100.00;100437.03;2113630;27;46702;-62
2024/03/15 01:52:24;;;;;;;;;2.00;1.75;;;;;17.63;100.00;100442.13;2113618;27;46536;-61
2024/03/15 01:53:24;;;;;;;;;3.75;2.25;;;;;17.58;100.00;100442.38;2114561;27;46615;-61
2024/03/15 01:54:25;;;;;;;;;2.00;1.67;;;;;17.63;100.00;100434.06;2114539;27;46420;-61
2024/03/15 01:55:25;;;;;;;;;2.00;2.00;;;;;17.62;100.00;100440.41;2114683;27;46871;-59
2024/03/15 01:56:26;;;;;;;;;1.00;1.00;;;;;17.61;100.00;100442.22;2114940;27;46332;-61
2024/03/15 01:57:27;;;;;;;;;2.00;2.00;;;;;17.62;100.00;100443.94;2114609;27;46110;-60
2024/03/15 01:58:27;;;;;;;;;1.00;1.00;;;;;17.61;100.00;100439.53;2114065;27;46872;-60
2024/03/15 01:59:27;;;;;;;;;1.00;1.00;;;;;17.60;100.00;100436.94;2113944;27;46874;-62
2024/03/15 02:00:28;;;;;;;;;3.00;3.00;;;;;17.57;100.00;100429.94;2115134;27;46343;-62
2024/03/15 02:01:28;;;;;;;;;2.00;2.00;;;;;17.56;100.00;100435.38;2116121;27;46250;-61
2024/03/15 02:02:31;;;;;;;;;0.67;0.67;;;;;17.54;100.00;100426.56;2108914;27;46235;-61
2024/03/15 02:03:32;;;;;;;;;2.50;1.50;;;;;17.54;100.00;100429.25;2107714;27;47435;-59
2024/03/15 02:04:33;;;;;;;;;2.67;2.67;;;;;17.53;100.00;100427.47;2114420;27;45130;-62
2024/03/15 02:05:34;;;;;;;;;2.00;2.00;;;;;17.55;100.00;100418.41;2115252;27;46761;-62
2024/03/15 02:06:37;;;;;;;;;2.50;1.00;;;;;17.55;100.00;100413.06;2113330;27;46446;-62
2024/03/15 02:07:38;;;;;;;;;2.00;2.00;;;;;17.56;100.00;100421.97;2114353;27;46523;-61
2024/03/15 02:08:38;;;;;;;;;2.00;2.00;;;;;17.54;100.00;100427.41;2114451;27;46255;-61
2024/03/15 02:09:38;;;;;;;;;2.33;2.33;;;;;17.58;100.00;100420.06;2106160;27;46290;-61
2024/03/15 02:10:39;;;;;;;;;2.00;2.00;;;;;17.57;100.00;100424.56;2107981;27;46453;-62
2024/03/15 02:11:39;;;;;;;;;0.67;0.67;;;;;17.57;100.00;100426.38;2113745;27;46285;-61
2024/03/15 02:12:40;;;;;;;;;1.00;1.00;;;;;17.57;100.00;100427.25;2115870;27;45619;-61
2024/03/15 02:13:41;;;;;;;;;1.00;1.00;;;;;17.61;100.00;100433.28;2114992;27;46185;-62
2024/03/15 02:14:41;;;;;;;;;1.00;1.00;;;;;17.61;100.00;100430.63;2114152;27;46338;-62
2024/03/15 02:15:42;;;;;;;;;1.00;1.00;;;;;17.58;100.00;100436.16;2115254;27;46611;-61
2024/03/15 02:16:42;;;;;;;;;2.50;1.50;;;;;17.58;100.00;100433.47;2114564;27;46445;-61
2024/03/15 02:17:43;;;;;;;;;1.33;0.67;;;;;17.61;100.00;100438.66;2115047;27;46261;-62
2024/03/15 02:18:43;;;;;;;;;2.00;2.00;;;;;17.60;100.00;100429.75;2113793;27;47078;-62
2024/03/15 02:19:47;;;;;;;;;1.00;1.00;;;;;17.63;100.00;100434.06;2113729;27;46386;-61
2024/03/15 02:20:47;;;;;;;;;2.00;2.00;;;;;17.59;100.00;100433.38;2115234;27;46797;-62
2024/03/15 02:21:48;;;;;;;;;2.00;1.00;;;;;17.57;100.00;100443.34;2115833;27;46272;-61
2024/03/15 02:22:48;;;;;;;;;0.00;0.00;;;;;17.56;100.00;100440.75;2113183;27;46582;-62
2024/03/15 02:23:49;;;;;;;;;2.67;2.00;;;;;17.53;100.00;100436.41;2114296;27;46693;-61
2024/03/15 02:24:50;;;;;;;;;2.00;1.67;;;;;17.57;100.00;100440.66;2114805;27;46277;-62
2024/03/15 02:25:50;;;;;;;;;0.00;0.00;;;;;17.57;100.00;100431.75;2113720;27;46668;-60
2024/03/15 02:26:51;;;;;;;;;1.00;1.00;;;;;17.57;100.00;100434.44;2111635;27;46278;-59
2024/03/15 02:27:51;;;;;;;;;1.00;1.00;;;;;17.57;100.00;100429.06;2113994;27;46560;-60
2024/03/15 02:28:52;;;;;;;;;2.00;0.67;;;;;17.56;100.00;100425.50;2114412;27;46571;-60
2024/03/15 02:29:52;;;;;;;;;1.33;1.33;;;;;17.58;100.00;100428.09;2114744;27;46632;-60
2024/03/15 02:30:52;;;;;;;;;1.00;1.00;;;;;17.57;100.00;100421.88;2114179;27;46195;-61
2024/03/15 02:31:53;;;;;;;;;2.00;2.00;;;;;17.56;100.00;100433.56;2114611;27;46644;-60
2024/03/15 02:32:53;;;;;;;;;4.00;1.00;;;;;17.54;100.00;100435.47;2114448;27;46104;-58
2024/03/15 02:33:57;;;;;;;;;1.67;1.67;;;;;17.54;100.00;100423.88;2097812;27;47225;-59
2024/03/15 02:34:57;;;;;;;;;0.50;0.50;;;;;17.56;100.00;100424.66;2100716;27;46926;-57
2024/03/15 02:35:58;;;;;;;;;2.00;2.00;;;;;17.54;100.00;100431.91;2115017;27;46324;-62
2024/03/15 02:36:58;;;;;;;;;1.33;1.33;;;;;17.54;100.00;100432.78;2114498;27;46309;-58
2024/03/15 02:37:58;;;;;;;;;1.00;1.00;;;;;17.58;100.00;100436.16;2113752;27;46829;-59
2024/03/15 02:38:59;;;;;;;;;1.00;1.00;;;;;17.58;100.00;100430.78;2114231;27;46501;-61
2024/03/15 02:39:59;;;;;;;;;0.00;0.00;;;;;17.59;100.00;100435.19;2114353;27;46729;-61
2024/03/15 02:40:59;;;;;;;;;1.00;1.00;;;;;17.57;100.00;100429.06;2114631;27;47589;-59
2024/03/15 02:42:05;;;;;;;;;2.00;2.00;;;;;17.57;100.00;100421.88;2113426;27;47077;-61
2024/03/15 02:43:06;;;;;;;;;1.00;1.00;;;;;17.50;100.00;100435.69;2112847;27;47007;-60
2024/03/15 02:44:07;;;;;;;;;0.50;0.50;;;;;17.49;100.00;100434.84;2114310;27;46477;-61
2024/03/15 02:45:07;;;;;;;;;2.00;2.00;;;;;17.49;100.00;100436.66;2114241;27;46617;-61
2024/03/15 02:46:08;;;;;;;;;0.33;0.33;;;;;17.50;100.00;100431.19;2113599;27;46150;-60
2024/03/15 02:47:08;;;;;;;;;1.67;1.67;;;;;17.49;100.00;100432.16;2115616;27;46730;-62
2024/03/15 02:48:09;;;;;;;;;1.00;1.00;;;;;17.50;100.00;100436.56;2114720;27;46560;-61
2024/03/15 02:49:09;;;;;;;;;2.00;1.00;;;;;17.49;100.00;100433.97;2111829;27;46316;-61
2024/03/15 02:50:09;;;;;;;;;1.00;1.00;;;;;17.50;100.00;100435.69;2114835;27;46729;-60
2024/03/15 02:51:12;;;;;;;;;2.00;1.00;;;;;17.49;100.00;100442.03;2114139;27;45784;-60
2024/03/15 02:52:13;;;;;;;;;1.00;0.00;;;;;17.48;100.00;100440.28;2114684;27;46779;-62
2024/03/15 02:53:13;;;;;;;;;1.00;1.00;;;;;17.47;100.00;100442.09;2114615;27;46887;-61
2024/03/15 02:54:14;;;;;;;;;1.00;1.00;;;;;17.48;100.00;100437.59;2113942;27;46382;-61
2024/03/15 02:55:14;;;;;;;;;1.00;1.00;;;;;17.50;100.00;100446.44;2114785;27;46273;-61
2024/03/15 02:56:15;;;;;;;;;1.00;1.00;;;;;17.50;100.00;100449.13;2114419;27;46348;-60
2024/03/15 02:57:15;;;;;;;;;2.00;2.00;;;;;17.50;100.00;100449.13;2114063;27;46754;-61
2024/03/15 02:58:18;;;;;;;;;1.33;1.33;;;;;17.50;100.00;100443.75;2114289;27;46264;-60
2024/03/15 02:59:24;;;;;;;;;1.50;1.50;;;;;17.48;100.00;100441.16;2114462;27;47010;-60
2024/03/15 03:00:24;;;;;;;;;1.75;1.75;;;;;17.48;100.00;100435.78;2112843;27;46570;-60
2024/03/15 03:01:25;;;;;;;;;1.00;0.00;;;;;17.48;100.00;100433.09;2113445;27;46660;-60
2024/03/15 03:02:25;;;;;;;;;1.00;1.00;;;;;17.46;100.00;100442.19;2115011;27;46595;-60
2024/03/15 03:03:25;;;;;;;;;1.00;1.00;;;;;17.46;100.00;100445.75;2114407;27;48257;-61
2024/03/15 03:04:26;;;;;;;;;1.00;1.00;;;;;17.45;100.00;100435.97;2114335;27;46647;-61
2024/03/15 03:05:26;;;;;;;;;0.33;0.00;;;;;17.45;100.00;100432.41;2115521;27;45543;-56
2024/03/15 03:06:27;;;;;;;;;2.00;1.67;;;;;17.45;100.00;100443.16;2114345;27;46185;-60
2024/03/15 03:07:28;;;;;;;;;0.25;0.25;;;;;17.45;100.00;100443.16;2114684;27;46491;-61
2024/03/15 03:08:28;;;;;;;;;2.00;1.00;;;;;17.40;100.00;100443.38;2114503;27;46531;-60
2024/03/15 03:09:28;;;;;;;;;1.00;1.00;;;;;17.38;100.00;100439.91;2113881;27;46313;-62
2024/03/15 03:10:29;;;;;;;;;1.00;1.00;;;;;17.41;100.00;100442.47;2114027;27;46202;-60
2024/03/15 03:11:29;;;;;;;;;1.00;1.00;;;;;17.45;100.00;100443.16;2107820;27;46642;-62
2024/03/15 03:12:31;;;;;;;;;1.00;1.00;;;;;17.46;100.00;100442.19;2107421;27;47390;-61
2024/03/15 03:13:31;;;;;;;;;1.25;1.25;;;;;17.45;100.00;100441.31;2114576;27;46587;-61
2024/03/15 03:14:33;;;;;;;;;0.00;0.00;;;;;17.46;100.00;100440.38;2114339;27;47073;-62
2024/03/15 03:15:34;;;;;;;;;1.00;1.00;;;;;17.46;100.00;100444.88;2112628;27;46966;-61
2024/03/15 03:16:35;;;;;;;;;0.33;0.33;;;;;17.44;100.00;100446.78;2114833;27;47392;-61
2024/03/15 03:17:35;;;;;;;;;0.00;0.00;;;;;17.41;100.00;100445.13;2110814;27;45357;-62
2024/03/15 03:18:36;;;;;;;;;1.67;1.00;;;;;17.43;100.00;100450.41;2113037;27;46305;-60
2024/03/15 03:19:36;;;;;;;;;1.00;1.00;;;;;17.44;100.00;100436.06;2113336;27;46167;-61
2024/03/15 03:20:36;;;;;;;;;1.00;1.00;;;;;17.34;100.00;100441.91;2106646;27;45930;-59
2024/03/15 03:21:37;;;;;;;;;2.00;1.67;;;;;17.43;100.00;100448.59;2105786;27;47464;-61
2024/03/15 03:22:38;;;;;;;;;2.00;2.00;;;;;17.38;100.00;100453.31;2113035;27;46654;-61
2024/03/15 03:23:38;;;;;;;;;1.00;1.00;;;;;17.42;100.00;100443.31;2114180;27;46455;-60
2024/03/15 03:24:38;;;;;;;;;1.67;1.67;;;;;17.42;100.00;100441.50;2114242;27;46633;-60
2024/03/15 03:25:39;;;;;;;;;1.00;1.00;;;;;17.43;100.00;100445.06;2114466;27;46393;-61
2024/03/15 03:26:39;;;;;;;;;1.00;1.00;;;;;17.41;100.00;100446.97;2113445;27;46142;-58
2024/03/15 03:27:40;;;;;;;;;2.00;1.67;;;;;17.46;100.00;100444.88;2113432;27;46223;-61
2024/03/15 03:28:40;;;;;;;;;1.67;1.67;;;;;17.50;100.00;100451.78;2115248;27;46767;-59
2024/03/15 03:29:41;;;;;;;;;1.00;1.00;;;;;17.49;100.00;100445.56;2114408;27;46299;-62
2024/03/15 03:30:42;;;;;;;;;1.00;1.00;;;;;17.49;100.00;100450.94;2113771;27;46732;-59
2024/03/15 03:31:43;;;;;;;;;1.00;1.00;;;;;17.49;100.00;100450.06;2113529;27;46780;-61
2024/03/15 03:32:43;;;;;;;;;1.00;1.00;;;;;17.50;100.00;100449.13;2111383;27;46378;-61
2024/03/15 03:33:43;;;;;;;;;1.00;1.00;;;;;17.49;100.00;100442.88;2112788;27;46573;-61
2024/03/15 03:34:44;;;;;;;;;0.00;0.00;;;;;17.43;100.00;100439.69;2113231;27;46384;-61
2024/03/15 03:35:44;;;;;;;;;1.00;1.00;;;;;17.44;100.00;100444.09;2113374;27;46887;-62
2024/03/15 03:36:44;;;;;;;;;1.00;1.00;;;;;17.44;100.00;100444.97;2115608;27;46367;-62
2024/03/15 03:37:45;;;;;;;;;0.00;0.00;;;;;17.45;100.00;100446.69;2114643;27;46470;-61
2024/03/15 03:38:45;;;;;;;;;2.00;2.00;;;;;17.46;100.00;100450.25;2114273;27;46239;-59
2024/03/15 03:39:46;;;;;;;;;1.00;1.00;;;;;17.50;100.00;100451.78;2114326;27;46174;-60
2024/03/15 03:40:46;;;;;;;;;0.00;0.00;;;;;17.49;100.00;100450.94;2114690;27;46257;-62
2024/03/15 03:41:48;;;;;;;;;0.67;0.67;;;;;17.49;100.00;100453.63;2115313;27;46269;-61
2024/03/15 03:42:48;;;;;;;;;2.50;1.00;;;;;17.50;100.00;100455.34;2115256;27;46438;-61
2024/03/15 03:43:49;;;;;;;;;1.00;1.00;;;;;17.50;100.00;100449.13;2115653;27;46420;-61
2024/03/15 03:44:49;;;;;;;;;0.00;0.00;;;;;17.49;100.00;100453.63;2116184;27;46885;-59
2024/03/15 03:45:50;;;;;;;;;1.00;1.00;;;;;17.51;100.00;100459.75;2115336;27;46105;-60
2024/03/15 03:46:50;;;;;;;;;1.00;1.00;;;;;17.52;100.00;100457.94;2116004;27;46702;-60
2024/03/15 03:47:51;;;;;;;;;2.33;1.67;;;;;17.57;100.00;100459.44;2116594;27;46353;-61
2024/03/15 03:48:51;;;;;;;;;0.00;0.00;;;;;17.59;100.00;100452.16;2112950;27;46488;-60
2024/03/15 03:49:51;;;;;;;;;0.33;0.33;;;;;17.60;100.00;100459.25;2113005;27;46204;-62
2024/03/15 03:50:52;;;;;;;;;2.00;1.67;;;;;17.60;100.00;100459.25;2115136;27;46333;-61
2024/03/15 03:51:52;;;;;;;;;1.00;1.00;;;;;17.60;100.00;100453.03;2102656;27;46310;-58
2024/03/15 03:52:53;;;;;;;;;1.33;1.33;;;;;17.64;100.00;100460.81;2103108;28;46548;-62
2024/03/15 03:53:53;;;;;;;;;2.33;1.00;;;;;17.65;100.00;100459.00;2100113;28;46985;-62
2024/03/15 03:54:53;;;;;;;;;0.33;0.33;;;;;17.64;100.00;100458.13;2102825;28;46600;-60
2024/03/15 03:55:54;;;;;;;;;0.00;0.00;;;;;17.63;100.00;100452.84;2102878;27;46847;-61
2024/03/15 03:56:54;;;;;;;;;1.00;1.00;;;;;17.63;100.00;100460.91;2102616;27;46799;-61
2024/03/15 03:57:55;;;;;;;;;1.00;1.00;;;;;17.57;100.00;100462.13;2102180;28;46750;-61
2024/03/15 03:58:55;;;;;;;;;1.00;1.00;;;;;17.57;100.00;100469.31;2103019;27;46208;-61
2024/03/15 03:59:56;;;;;;;;;0.00;0.00;;;;;17.56;100.00;100465.75;2102302;27;46513;-61
2024/03/15 04:00:58;;;;;;;;;0.33;0.33;;;;;17.57;100.00;100459.44;2102636;28;47568;-61
2024/03/15 04:01:59;;;;;;;;;0.00;0.00;;;;;17.57;100.00;100464.81;2102696;28;45370;-61
2024/03/15 04:02:59;;;;;;;;;1.00;1.00;;;;;17.64;100.00;100463.50;2102633;27;47027;-63
2024/03/15 04:03:59;;;;;;;;;0.67;0.67;;;;;17.64;100.00;100460.81;2102367;28;46067;-60
2024/03/15 04:05:00;;;;;;;;;1.00;1.00;;;;;17.64;100.00;100465.31;2102439;27;46253;-61
2024/03/15 04:06:00;;;;;;;;;0.00;0.00;;;;;17.65;100.00;100475.09;2101096;27;47008;-62
2024/03/15 04:07:01;;;;;;;;;0.67;0.67;;;;;17.64;100.00;100470.69;2102608;27;46566;-62
2024/03/15 04:08:02;;;;;;;;;1.00;1.00;;;;;17.62;100.00;100469.91;2102201;27;46325;-59
2024/03/15 04:09:03;;;;;;;;;0.00;0.00;;;;;17.61;100.00;100466.38;2102208;28;46306;-61
2024/03/15 04:10:03;;;;;;;;;0.00;0.00;;;;;17.61;100.00;100470.88;2102921;27;46611;-62
2024/03/15 04:11:04;;;;;;;;;0.33;0.33;;;;;17.62;100.00;100473.47;2102535;28;46524;-59
2024/03/15 04:12:04;;;;;;;;;1.00;1.00;;;;;17.61;100.00;100468.19;2102630;27;45966;-59
2024/03/15 04:13:04;;;;;;;;;1.00;1.00;;;;;17.63;100.00;100471.63;2102258;28;46714;-61
2024/03/15 04:14:05;;;;;;;;;0.67;0.67;;;;;17.63;100.00;100467.13;2102967;28;46253;-61
2024/03/15 04:15:07;;;;;;;;;1.33;0.00;;;;;17.57;100.00;100462.13;2101599;28;46309;-57
2024/03/15 04:16:07;;;;;;;;;0.00;0.00;;;;;17.57;100.00;100470.19;2102162;28;46569;-59
2024/03/15 04:17:08;;;;;;;;;1.00;1.00;;;;;17.50;100.00;100471.44;2102340;28;46263;-60
2024/03/15 04:18:08;;;;;;;;;0.00;0.00;;;;;17.57;100.00;100467.50;2101910;28;46173;-61
2024/03/15 04:19:09;;;;;;;;;0.00;0.00;;;;;17.58;100.00;100471.91;2102110;27;46790;-62
2024/03/15 04:20:16;;;;;;;;;0.00;0.00;;;;;17.58;100.00;100476.41;2102302;27;46466;-61
2024/03/15 04:21:16;;;;;;;;;1.00;1.00;;;;;17.58;100.00;100477.28;2102394;27;47296;-60
2024/03/15 04:22:16;;;;;;;;;2.00;0.00;;;;;17.58;100.00;100469.22;2085641;28;47030;-59
2024/03/15 04:23:20;;;;;;;;;0.00;0.00;;;;;17.58;100.00;100471.91;2086011;28;46665;-61
2024/03/15 04:24:22;;;;;;;;;1.00;1.00;;;;;17.57;100.00;100474.69;2114224;27;46327;-61
2024/03/15 04:25:23;;;;;;;;;1.00;0.00;;;;;17.58;100.00;100473.72;2115309;27;46742;-61
2024/03/15 04:26:26;;;;;;;;;0.00;0.00;;;;;17.57;100.00;100472.84;2115440;27;46354;-60
2024/03/15 04:27:27;;;;;;;;;1.00;1.00;;;;;17.57;100.00;100475.53;2113259;27;46825;-61
2024/03/15 04:28:28;;;;;;;;;0.00;0.00;;;;;17.58;100.00;100474.59;2115288;27;46140;-61
2024/03/15 04:29:30;;;;;;;;;0.00;0.00;;;;;17.55;100.00;100471.22;2116824;27;46782;-60
2024/03/15 04:30:30;;;;;;;;;0.00;0.00;;;;;17.51;100.00;100475.84;2115713;27;46973;-61
2024/03/15 04:31:31;;;;;;;;;0.00;0.00;;;;;17.52;100.00;100479.41;2113944;27;46712;-61
2024/03/15 04:32:34;;;;;;;;;0.00;0.00;;;;;17.50;100.00;100473.25;2114799;27;46887;-58
2024/03/15 04:33:35;;;;;;;;;0.00;0.00;;;;;17.51;100.00;100473.19;2115048;27;46729;-61
2024/03/15 04:34:40;;;;;;;;;0.00;0.00;;;;;17.49;100.00;100477.75;2114822;27;46624;-59
2024/03/15 04:35:41;;;;;;;;;0.00;0.00;;;;;17.50;100.00;100473.25;2115390;27;46832;-60
2024/03/15 04:36:43;;;;;;;;;0.00;0.00;;;;;17.51;100.00;100475.00;2113845;27;46674;-60
2024/03/15 04:37:44;;;;;;;;;0.25;0.25;;;;;17.52;100.00;100485.63;2115751;27;46825;-60
2024/03/15 04:38:44;;;;;;;;;1.00;0.00;;;;;17.52;100.00;100485.63;2113411;27;45723;-61
2024/03/15 04:39:45;;;;;;;;;1.00;1.00;;;;;17.50;100.00;100476.81;2114819;27;46767;-61